sensor_id;sensor_type;location;lat;lon;timestamp;P1;durP1;ratioP1;P2;durP2;ratioP2
52015;SDS011;38032;53.326;6.472;2023-01-20T00:02:11;4.13;;;2.60;;
52015;SDS011;38032;53.326;6.472;2023-01-20T00:04:37;5.90;;;2.50;;
52015;SDS011;38032;53.326;6.472;2023-01-20T00:07:03;4.63;;;2.60;;
52015;SDS011;38032;53.326;6.472;2023-01-20T00:09:29;7.55;;;2.58;;
52015;SDS011;38032;53.326;6.472;2023-01-20T00:11:55;5.68;;;2.97;;
52015;SDS011;38032;53.326;6.472;2023-01-20T00:14:21;3.95;;;2.80;;
52015;SDS011;38032;53.326;6.472;2023-01-20T00:16:49;4.32;;;2.90;;
52015;SDS011;38032;53.326;6.472;2023-01-20T00:19:15;4.70;;;2.83;;
52015;SDS011;38032;53.326;6.472;2023-01-20T00:21:41;4.40;;;2.95;;
52015;SDS011;38032;53.326;6.472;2023-01-20T00:24:07;6.70;;;3.08;;
52015;SDS011;38032;53.326;6.472;2023-01-20T00:26:33;6.22;;;2.60;;
52015;SDS011;38032;53.326;6.472;2023-01-20T00:28:59;3.80;;;2.78;;
52015;SDS011;38032;53.326;6.472;2023-01-20T00:31:26;7.30;;;3.72;;
52015;SDS011;38032;53.326;6.472;2023-01-20T00:33:56;5.90;;;3.50;;
52015;SDS011;38032;53.326;6.472;2023-01-20T00:36:24;5.82;;;3.40;;
52015;SDS011;38032;53.326;6.472;2023-01-20T00:38:50;6.90;;;3.65;;
52015;SDS011;38032;53.326;6.472;2023-01-20T00:41:16;5.53;;;4.00;;
52015;SDS011;38032;53.326;6.472;2023-01-20T00:43:43;8.20;;;4.22;;
52015;SDS011;38032;53.326;6.472;2023-01-20T00:46:10;7.30;;;4.15;;
52015;SDS011;38032;53.326;6.472;2023-01-20T00:48:36;8.77;;;5.13;;
52015;SDS011;38032;53.326;6.472;2023-01-20T00:51:02;9.55;;;5.50;;
52015;SDS011;38032;53.326;6.472;2023-01-20T00:53:30;10.43;;;5.85;;
52015;SDS011;38032;53.326;6.472;2023-01-20T00:55:55;8.93;;;5.53;;
52015;SDS011;38032;53.326;6.472;2023-01-20T00:58:21;9.23;;;5.10;;
52015;SDS011;38032;53.326;6.472;2023-01-20T01:00:48;8.05;;;4.32;;
52015;SDS011;38032;53.326;6.472;2023-01-20T01:03:15;8.30;;;5.55;;
52015;SDS011;38032;53.326;6.472;2023-01-20T01:05:42;7.57;;;5.20;;
52015;SDS011;38032;53.326;6.472;2023-01-20T01:08:08;8.57;;;5.03;;
52015;SDS011;38032;53.326;6.472;2023-01-20T01:10:35;7.32;;;4.38;;
52015;SDS011;38032;53.326;6.472;2023-01-20T01:13:02;6.68;;;4.18;;
52015;SDS011;38032;53.326;6.472;2023-01-20T01:15:29;7.15;;;3.80;;
52015;SDS011;38032;53.326;6.472;2023-01-20T01:17:55;6.80;;;3.90;;
52015;SDS011;38032;53.326;6.472;2023-01-20T01:20:22;5.18;;;3.70;;
52015;SDS011;38032;53.326;6.472;2023-01-20T01:22:48;5.60;;;3.70;;
52015;SDS011;38032;53.326;6.472;2023-01-20T01:25:14;6.53;;;3.85;;
52015;SDS011;38032;53.326;6.472;2023-01-20T01:27:40;6.10;;;4.05;;
52015;SDS011;38032;53.326;6.472;2023-01-20T01:30:07;8.07;;;4.57;;
52015;SDS011;38032;53.326;6.472;2023-01-20T01:32:34;7.45;;;4.65;;
52015;SDS011;38032;53.326;6.472;2023-01-20T01:35:00;6.30;;;4.43;;
52015;SDS011;38032;53.326;6.472;2023-01-20T01:37:26;7.35;;;4.53;;
52015;SDS011;38032;53.326;6.472;2023-01-20T01:39:52;9.13;;;5.18;;
52015;SDS011;38032;53.326;6.472;2023-01-20T01:42:21;15.80;;;6.10;;
52015;SDS011;38032;53.326;6.472;2023-01-20T01:45:13;13.82;;;5.93;;
52015;SDS011;38032;53.326;6.472;2023-01-20T01:50:17;10.57;;;6.28;;
52015;SDS011;38032;53.326;6.472;2023-01-20T01:52:46;25.58;;;7.72;;
52015;SDS011;38032;53.326;6.472;2023-01-20T01:55:15;22.42;;;7.78;;
52015;SDS011;38032;53.326;6.472;2023-01-20T01:57:43;34.17;;;8.82;;
52015;SDS011;38032;53.326;6.472;2023-01-20T02:00:10;20.88;;;7.55;;
52015;SDS011;38032;53.326;6.472;2023-01-20T02:02:36;16.70;;;6.97;;
52015;SDS011;38032;53.326;6.472;2023-01-20T02:05:02;14.05;;;7.88;;
52015;SDS011;38032;53.326;6.472;2023-01-20T02:07:29;16.90;;;7.82;;
52015;SDS011;38032;53.326;6.472;2023-01-20T02:09:57;15.07;;;7.15;;
52015;SDS011;38032;53.326;6.472;2023-01-20T02:12:24;12.60;;;7.53;;
52015;SDS011;38032;53.326;6.472;2023-01-20T02:14:51;15.93;;;8.40;;
52015;SDS011;38032;53.326;6.472;2023-01-20T02:17:22;13.93;;;7.75;;
52015;SDS011;38032;53.326;6.472;2023-01-20T02:25:12;13.68;;;7.82;;
52015;SDS011;38032;53.326;6.472;2023-01-20T02:28:06;14.95;;;7.72;;
52015;SDS011;38032;53.326;6.472;2023-01-20T02:33:11;13.93;;;8.02;;
52015;SDS011;38032;53.326;6.472;2023-01-20T02:41:03;12.75;;;8.27;;
52015;SDS011;38032;53.326;6.472;2023-01-20T02:43:36;11.82;;;7.43;;
52015;SDS011;38032;53.326;6.472;2023-01-20T02:46:13;13.30;;;8.75;;
52015;SDS011;38032;53.326;6.472;2023-01-20T02:49:00;12.63;;;7.68;;
52015;SDS011;38032;53.326;6.472;2023-01-20T02:51:42;14.43;;;9.13;;
52015;SDS011;38032;53.326;6.472;2023-01-20T02:54:11;13.07;;;7.50;;
52015;SDS011;38032;53.326;6.472;2023-01-20T02:56:41;12.07;;;7.20;;
52015;SDS011;38032;53.326;6.472;2023-01-20T02:59:09;14.40;;;8.13;;
52015;SDS011;38032;53.326;6.472;2023-01-20T03:01:38;10.60;;;6.93;;
52015;SDS011;38032;53.326;6.472;2023-01-20T03:04:08;14.38;;;7.50;;
52015;SDS011;38032;53.326;6.472;2023-01-20T03:06:38;13.80;;;8.07;;
52015;SDS011;38032;53.326;6.472;2023-01-20T03:09:09;13.30;;;8.02;;
52015;SDS011;38032;53.326;6.472;2023-01-20T03:11:39;11.50;;;7.25;;
52015;SDS011;38032;53.326;6.472;2023-01-20T03:14:10;10.77;;;6.75;;
52015;SDS011;38032;53.326;6.472;2023-01-20T03:16:38;11.98;;;7.38;;
52015;SDS011;38032;53.326;6.472;2023-01-20T03:19:05;15.48;;;7.47;;
52015;SDS011;38032;53.326;6.472;2023-01-20T03:21:31;11.93;;;7.20;;
52015;SDS011;38032;53.326;6.472;2023-01-20T03:24:00;13.77;;;7.63;;
52015;SDS011;38032;53.326;6.472;2023-01-20T03:26:27;14.75;;;8.35;;
52015;SDS011;38032;53.326;6.472;2023-01-20T03:28:55;10.48;;;6.90;;
52015;SDS011;38032;53.326;6.472;2023-01-20T03:31:24;12.73;;;7.45;;
52015;SDS011;38032;53.326;6.472;2023-01-20T03:33:50;13.07;;;8.35;;
52015;SDS011;38032;53.326;6.472;2023-01-20T03:36:19;13.30;;;7.80;;
52015;SDS011;38032;53.326;6.472;2023-01-20T03:38:47;14.75;;;8.65;;
52015;SDS011;38032;53.326;6.472;2023-01-20T03:43:56;11.45;;;7.00;;
52015;SDS011;38032;53.326;6.472;2023-01-20T03:46:35;12.63;;;8.30;;
52015;SDS011;38032;53.326;6.472;2023-01-20T03:49:14;12.90;;;8.00;;
52015;SDS011;38032;53.326;6.472;2023-01-20T03:51:50;13.45;;;8.65;;
52015;SDS011;38032;53.326;6.472;2023-01-20T03:54:26;14.57;;;8.93;;
52015;SDS011;38032;53.326;6.472;2023-01-20T03:57:02;14.10;;;8.20;;
52015;SDS011;38032;53.326;6.472;2023-01-20T03:59:33;13.80;;;8.98;;
52015;SDS011;38032;53.326;6.472;2023-01-20T04:02:02;15.02;;;9.45;;
52015;SDS011;38032;53.326;6.472;2023-01-20T04:04:31;14.95;;;9.18;;
52015;SDS011;38032;53.326;6.472;2023-01-20T04:07:00;17.48;;;9.80;;
52015;SDS011;38032;53.326;6.472;2023-01-20T04:09:28;17.50;;;10.23;;
52015;SDS011;38032;53.326;6.472;2023-01-20T04:11:59;19.20;;;11.10;;
52015;SDS011;38032;53.326;6.472;2023-01-20T04:14:25;26.40;;;11.23;;
52015;SDS011;38032;53.326;6.472;2023-01-20T04:16:56;27.83;;;10.93;;
52015;SDS011;38032;53.326;6.472;2023-01-20T04:19:23;24.63;;;11.00;;
52015;SDS011;38032;53.326;6.472;2023-01-20T04:22:01;33.95;;;13.35;;
52015;SDS011;38032;53.326;6.472;2023-01-20T04:24:35;28.48;;;12.63;;
52015;SDS011;38032;53.326;6.472;2023-01-20T04:27:07;28.80;;;12.30;;
52015;SDS011;38032;53.326;6.472;2023-01-20T04:29:32;24.35;;;12.30;;
52015;SDS011;38032;53.326;6.472;2023-01-20T04:32:00;27.00;;;12.82;;
52015;SDS011;38032;53.326;6.472;2023-01-20T04:34:27;26.15;;;12.88;;
52015;SDS011;38032;53.326;6.472;2023-01-20T04:36:53;23.65;;;13.40;;
52015;SDS011;38032;53.326;6.472;2023-01-20T04:39:19;23.90;;;13.20;;
52015;SDS011;38032;53.326;6.472;2023-01-20T04:41:47;22.23;;;12.68;;
52015;SDS011;38032;53.326;6.472;2023-01-20T04:44:13;21.23;;;11.90;;
52015;SDS011;38032;53.326;6.472;2023-01-20T04:46:38;22.33;;;11.35;;
52015;SDS011;38032;53.326;6.472;2023-01-20T04:49:04;30.40;;;13.65;;
52015;SDS011;38032;53.326;6.472;2023-01-20T04:51:31;28.75;;;12.43;;
52015;SDS011;38032;53.326;6.472;2023-01-20T04:53:58;28.05;;;12.18;;
52015;SDS011;38032;53.326;6.472;2023-01-20T04:56:24;27.52;;;12.43;;
52015;SDS011;38032;53.326;6.472;2023-01-20T04:58:50;30.17;;;12.65;;
52015;SDS011;38032;53.326;6.472;2023-01-20T05:01:17;25.35;;;12.02;;
52015;SDS011;38032;53.326;6.472;2023-01-20T05:03:42;24.25;;;12.82;;
52015;SDS011;38032;53.326;6.472;2023-01-20T05:06:09;24.67;;;12.52;;
52015;SDS011;38032;53.326;6.472;2023-01-20T05:08:35;26.00;;;12.45;;
52015;SDS011;38032;53.326;6.472;2023-01-20T05:11:01;23.60;;;12.02;;
52015;SDS011;38032;53.326;6.472;2023-01-20T05:13:27;24.77;;;11.73;;
52015;SDS011;38032;53.326;6.472;2023-01-20T05:15:53;25.50;;;14.30;;
52015;SDS011;38032;53.326;6.472;2023-01-20T05:18:19;20.05;;;11.63;;
52015;SDS011;38032;53.326;6.472;2023-01-20T05:20:46;20.80;;;10.88;;
52015;SDS011;38032;53.326;6.472;2023-01-20T05:23:13;23.65;;;11.75;;
52015;SDS011;38032;53.326;6.472;2023-01-20T05:25:39;21.05;;;11.75;;
52015;SDS011;38032;53.326;6.472;2023-01-20T05:28:05;19.30;;;11.10;;
52015;SDS011;38032;53.326;6.472;2023-01-20T05:30:31;21.48;;;11.50;;
52015;SDS011;38032;53.326;6.472;2023-01-20T05:32:57;25.45;;;12.23;;
52015;SDS011;38032;53.326;6.472;2023-01-20T05:35:23;19.73;;;10.63;;
52015;SDS011;38032;53.326;6.472;2023-01-20T05:37:51;20.35;;;11.32;;
52015;SDS011;38032;53.326;6.472;2023-01-20T05:40:18;20.45;;;11.30;;
52015;SDS011;38032;53.326;6.472;2023-01-20T05:42:45;21.73;;;11.20;;
52015;SDS011;38032;53.326;6.472;2023-01-20T05:45:10;23.15;;;12.27;;
52015;SDS011;38032;53.326;6.472;2023-01-20T05:47:36;20.67;;;11.57;;
52015;SDS011;38032;53.326;6.472;2023-01-20T05:50:03;24.40;;;12.40;;
52015;SDS011;38032;53.326;6.472;2023-01-20T05:52:29;20.50;;;10.77;;
52015;SDS011;38032;53.326;6.472;2023-01-20T05:54:55;21.30;;;11.23;;
52015;SDS011;38032;53.326;6.472;2023-01-20T05:57:23;23.45;;;11.85;;
52015;SDS011;38032;53.326;6.472;2023-01-20T05:59:49;23.17;;;12.00;;
52015;SDS011;38032;53.326;6.472;2023-01-20T06:02:16;22.20;;;11.15;;
52015;SDS011;38032;53.326;6.472;2023-01-20T06:04:44;21.42;;;11.25;;
52015;SDS011;38032;53.326;6.472;2023-01-20T06:07:10;22.30;;;11.90;;
52015;SDS011;38032;53.326;6.472;2023-01-20T06:09:36;21.50;;;11.30;;
52015;SDS011;38032;53.326;6.472;2023-01-20T06:12:02;26.20;;;12.77;;
52015;SDS011;38032;53.326;6.472;2023-01-20T06:14:28;23.80;;;12.43;;
52015;SDS011;38032;53.326;6.472;2023-01-20T06:16:54;27.02;;;12.90;;
52015;SDS011;38032;53.326;6.472;2023-01-20T06:19:20;21.70;;;11.73;;
52015;SDS011;38032;53.326;6.472;2023-01-20T06:21:46;22.98;;;11.57;;
52015;SDS011;38032;53.326;6.472;2023-01-20T06:24:12;25.33;;;12.27;;
52015;SDS011;38032;53.326;6.472;2023-01-20T06:26:38;22.23;;;12.20;;
52015;SDS011;38032;53.326;6.472;2023-01-20T06:29:04;21.90;;;11.02;;
52015;SDS011;38032;53.326;6.472;2023-01-20T06:31:30;26.83;;;13.30;;
52015;SDS011;38032;53.326;6.472;2023-01-20T06:33:55;24.88;;;12.48;;
52015;SDS011;38032;53.326;6.472;2023-01-20T06:36:21;24.40;;;13.25;;
52015;SDS011;38032;53.326;6.472;2023-01-20T06:38:48;21.95;;;11.73;;
52015;SDS011;38032;53.326;6.472;2023-01-20T06:41:15;26.38;;;12.35;;
52015;SDS011;38032;53.326;6.472;2023-01-20T06:43:42;23.40;;;12.02;;
52015;SDS011;38032;53.326;6.472;2023-01-20T06:46:09;22.80;;;12.68;;
52015;SDS011;38032;53.326;6.472;2023-01-20T06:48:37;24.40;;;12.65;;
52015;SDS011;38032;53.326;6.472;2023-01-20T06:51:04;21.30;;;11.20;;
52015;SDS011;38032;53.326;6.472;2023-01-20T06:53:31;28.00;;;13.30;;
52015;SDS011;38032;53.326;6.472;2023-01-20T06:55:58;25.48;;;13.10;;
52015;SDS011;38032;53.326;6.472;2023-01-20T06:58:25;24.42;;;12.43;;
52015;SDS011;38032;53.326;6.472;2023-01-20T07:00:53;25.70;;;13.57;;
52015;SDS011;38032;53.326;6.472;2023-01-20T07:03:20;28.00;;;13.45;;
52015;SDS011;38032;53.326;6.472;2023-01-20T07:05:51;25.00;;;13.02;;
52015;SDS011;38032;53.326;6.472;2023-01-20T07:08:20;24.40;;;11.73;;
52015;SDS011;38032;53.326;6.472;2023-01-20T07:10:46;24.25;;;12.68;;
52015;SDS011;38032;53.326;6.472;2023-01-20T07:13:12;27.48;;;14.07;;
52015;SDS011;38032;53.326;6.472;2023-01-20T07:15:38;25.08;;;13.57;;
52015;SDS011;38032;53.326;6.472;2023-01-20T07:18:04;27.52;;;13.82;;
52015;SDS011;38032;53.326;6.472;2023-01-20T07:20:29;29.27;;;14.43;;
52015;SDS011;38032;53.326;6.472;2023-01-20T07:22:58;25.63;;;13.15;;
52015;SDS011;38032;53.326;6.472;2023-01-20T07:25:24;27.98;;;14.63;;
52015;SDS011;38032;53.326;6.472;2023-01-20T07:27:50;32.17;;;15.65;;
52015;SDS011;38032;53.326;6.472;2023-01-20T07:30:16;26.83;;;13.77;;
52015;SDS011;38032;53.326;6.472;2023-01-20T07:32:42;26.98;;;14.30;;
52015;SDS011;38032;53.326;6.472;2023-01-20T07:35:08;29.10;;;14.73;;
52015;SDS011;38032;53.326;6.472;2023-01-20T07:37:34;26.67;;;13.63;;
52015;SDS011;38032;53.326;6.472;2023-01-20T07:40:00;27.08;;;14.73;;
52015;SDS011;38032;53.326;6.472;2023-01-20T07:42:26;26.58;;;14.05;;
52015;SDS011;38032;53.326;6.472;2023-01-20T07:44:52;26.83;;;13.73;;
52015;SDS011;38032;53.326;6.472;2023-01-20T07:47:17;27.92;;;14.55;;
52015;SDS011;38032;53.326;6.472;2023-01-20T07:49:43;26.35;;;14.15;;
52015;SDS011;38032;53.326;6.472;2023-01-20T07:52:09;28.73;;;15.65;;
52015;SDS011;38032;53.326;6.472;2023-01-20T07:54:35;29.30;;;15.52;;
52015;SDS011;38032;53.326;6.472;2023-01-20T07:57:01;31.30;;;16.35;;
52015;SDS011;38032;53.326;6.472;2023-01-20T07:59:27;31.15;;;14.07;;
52015;SDS011;38032;53.326;6.472;2023-01-20T08:01:54;28.73;;;15.10;;
52015;SDS011;38032;53.326;6.472;2023-01-20T08:04:20;26.02;;;14.43;;
52015;SDS011;38032;53.326;6.472;2023-01-20T08:06:46;27.95;;;15.18;;
52015;SDS011;38032;53.326;6.472;2023-01-20T08:09:12;25.45;;;13.75;;
52015;SDS011;38032;53.326;6.472;2023-01-20T08:11:39;29.77;;;15.52;;
52015;SDS011;38032;53.326;6.472;2023-01-20T08:14:05;28.48;;;15.30;;
52015;SDS011;38032;53.326;6.472;2023-01-20T08:16:31;28.30;;;14.48;;
52015;SDS011;38032;53.326;6.472;2023-01-20T08:18:57;25.60;;;12.60;;
52015;SDS011;38032;53.326;6.472;2023-01-20T08:23:53;25.65;;;13.27;;
52015;SDS011;38032;53.326;6.472;2023-01-20T08:26:20;31.77;;;15.68;;
52015;SDS011;38032;53.326;6.472;2023-01-20T08:28:48;28.90;;;14.50;;
52015;SDS011;38032;53.326;6.472;2023-01-20T08:31:16;30.38;;;16.48;;
52015;SDS011;38032;53.326;6.472;2023-01-20T08:33:43;32.83;;;16.40;;
52015;SDS011;38032;53.326;6.472;2023-01-20T08:36:12;31.10;;;16.63;;
52015;SDS011;38032;53.326;6.472;2023-01-20T08:38:40;33.58;;;16.02;;
52015;SDS011;38032;53.326;6.472;2023-01-20T08:41:07;33.25;;;16.40;;
52015;SDS011;38032;53.326;6.472;2023-01-20T08:43:34;33.10;;;15.52;;
52015;SDS011;38032;53.326;6.472;2023-01-20T08:46:02;31.33;;;16.08;;
52015;SDS011;38032;53.326;6.472;2023-01-20T08:48:31;32.10;;;16.88;;
52015;SDS011;38032;53.326;6.472;2023-01-20T08:50:57;29.55;;;16.40;;
52015;SDS011;38032;53.326;6.472;2023-01-20T08:53:23;33.15;;;16.50;;
52015;SDS011;38032;53.326;6.472;2023-01-20T08:55:55;32.80;;;17.20;;
52015;SDS011;38032;53.326;6.472;2023-01-20T08:58:22;36.80;;;17.50;;
52015;SDS011;38032;53.326;6.472;2023-01-20T09:00:49;33.95;;;17.08;;
52015;SDS011;38032;53.326;6.472;2023-01-20T09:03:15;32.80;;;17.27;;
52015;SDS011;38032;53.326;6.472;2023-01-20T09:05:41;28.55;;;15.43;;
52015;SDS011;38032;53.326;6.472;2023-01-20T09:08:07;32.28;;;16.27;;
52015;SDS011;38032;53.326;6.472;2023-01-20T09:10:33;35.38;;;17.15;;
52015;SDS011;38032;53.326;6.472;2023-01-20T09:12:59;36.03;;;16.92;;
52015;SDS011;38032;53.326;6.472;2023-01-20T09:15:25;34.78;;;17.60;;
52015;SDS011;38032;53.326;6.472;2023-01-20T09:17:52;35.00;;;17.58;;
52015;SDS011;38032;53.326;6.472;2023-01-20T09:20:18;33.67;;;17.55;;
52015;SDS011;38032;53.326;6.472;2023-01-20T09:22:44;33.50;;;17.88;;
52015;SDS011;38032;53.326;6.472;2023-01-20T09:25:11;34.65;;;17.70;;
52015;SDS011;38032;53.326;6.472;2023-01-20T09:27:37;37.45;;;17.77;;
52015;SDS011;38032;53.326;6.472;2023-01-20T09:30:03;31.73;;;16.45;;
52015;SDS011;38032;53.326;6.472;2023-01-20T09:32:29;35.10;;;17.90;;
52015;SDS011;38032;53.326;6.472;2023-01-20T09:34:56;37.10;;;18.10;;
52015;SDS011;38032;53.326;6.472;2023-01-20T09:37:22;34.60;;;17.52;;
52015;SDS011;38032;53.326;6.472;2023-01-20T09:40:11;32.53;;;17.07;;
52015;SDS011;38032;53.326;6.472;2023-01-20T09:43:06;34.55;;;18.38;;
52015;SDS011;38032;53.326;6.472;2023-01-20T09:46:09;32.45;;;17.30;;
52015;SDS011;38032;53.326;6.472;2023-01-20T09:48:55;36.00;;;18.73;;
52015;SDS011;38032;53.326;6.472;2023-01-20T09:51:52;31.85;;;17.15;;
52015;SDS011;38032;53.326;6.472;2023-01-20T09:54:47;37.42;;;18.25;;
52015;SDS011;38032;53.326;6.472;2023-01-20T09:57:18;35.75;;;17.73;;
52015;SDS011;38032;53.326;6.472;2023-01-20T09:59:49;35.15;;;17.83;;
52015;SDS011;38032;53.326;6.472;2023-01-20T10:02:24;33.88;;;17.70;;
52015;SDS011;38032;53.326;6.472;2023-01-20T10:04:56;36.15;;;17.67;;
52015;SDS011;38032;53.326;6.472;2023-01-20T10:07:29;35.60;;;17.90;;
52015;SDS011;38032;53.326;6.472;2023-01-20T10:10:09;31.77;;;15.93;;
52015;SDS011;38032;53.326;6.472;2023-01-20T10:12:44;35.85;;;17.80;;
52015;SDS011;38032;53.326;6.472;2023-01-20T10:15:18;34.95;;;17.58;;
52015;SDS011;38032;53.326;6.472;2023-01-20T10:17:50;35.78;;;17.75;;
52015;SDS011;38032;53.326;6.472;2023-01-20T10:20:28;34.42;;;17.55;;
52015;SDS011;38032;53.326;6.472;2023-01-20T10:23:04;34.90;;;17.40;;
52015;SDS011;38032;53.326;6.472;2023-01-20T10:25:43;35.70;;;17.63;;
52015;SDS011;38032;53.326;6.472;2023-01-20T10:28:18;34.95;;;18.15;;
52015;SDS011;38032;53.326;6.472;2023-01-20T10:30:51;32.83;;;17.40;;
52015;SDS011;38032;53.326;6.472;2023-01-20T10:33:18;34.38;;;17.33;;
52015;SDS011;38032;53.326;6.472;2023-01-20T10:35:52;31.52;;;17.17;;
52015;SDS011;38032;53.326;6.472;2023-01-20T10:40:56;33.33;;;17.15;;
52015;SDS011;38032;53.326;6.472;2023-01-20T10:43:27;36.63;;;18.13;;
52015;SDS011;38032;53.326;6.472;2023-01-20T10:45:59;35.83;;;17.58;;
52015;SDS011;38032;53.326;6.472;2023-01-20T10:51:11;33.80;;;17.80;;
52015;SDS011;38032;53.326;6.472;2023-01-20T10:53:55;36.00;;;18.00;;
52015;SDS011;38032;53.326;6.472;2023-01-20T10:56:33;37.15;;;18.65;;
52015;SDS011;38032;53.326;6.472;2023-01-20T10:59:07;34.97;;;17.73;;
52015;SDS011;38032;53.326;6.472;2023-01-20T11:01:39;35.05;;;17.92;;
52015;SDS011;38032;53.326;6.472;2023-01-20T11:04:13;34.50;;;17.17;;
52015;SDS011;38032;53.326;6.472;2023-01-20T11:06:42;35.80;;;17.48;;
52015;SDS011;38032;53.326;6.472;2023-01-20T11:09:16;34.45;;;18.25;;
52015;SDS011;38032;53.326;6.472;2023-01-20T11:11:47;35.88;;;17.75;;
52015;SDS011;38032;53.326;6.472;2023-01-20T11:14:13;34.53;;;16.85;;
52015;SDS011;38032;53.326;6.472;2023-01-20T11:16:39;34.25;;;17.35;;
52015;SDS011;38032;53.326;6.472;2023-01-20T11:19:08;36.85;;;17.95;;
52015;SDS011;38032;53.326;6.472;2023-01-20T11:21:35;34.97;;;17.40;;
52015;SDS011;38032;53.326;6.472;2023-01-20T11:24:03;34.58;;;17.90;;
52015;SDS011;38032;53.326;6.472;2023-01-20T11:27:03;33.40;;;17.50;;
52015;SDS011;38032;53.326;6.472;2023-01-20T11:29:30;34.60;;;17.17;;
52015;SDS011;38032;53.326;6.472;2023-01-20T11:32:02;33.90;;;17.77;;
52015;SDS011;38032;53.326;6.472;2023-01-20T11:34:29;33.90;;;17.58;;
52015;SDS011;38032;53.326;6.472;2023-01-20T11:37:11;36.65;;;17.45;;
52015;SDS011;38032;53.326;6.472;2023-01-20T11:42:14;32.72;;;17.13;;
52015;SDS011;38032;53.326;6.472;2023-01-20T11:44:48;36.78;;;17.50;;
52015;SDS011;38032;53.326;6.472;2023-01-20T11:47:24;34.25;;;17.10;;
52015;SDS011;38032;53.326;6.472;2023-01-20T11:52:29;33.20;;;16.27;;
52015;SDS011;38032;53.326;6.472;2023-01-20T11:57:36;34.85;;;16.95;;
52015;SDS011;38032;53.326;6.472;2023-01-20T12:00:08;31.67;;;16.35;;
52015;SDS011;38032;53.326;6.472;2023-01-20T12:03:01;29.92;;;15.63;;
52015;SDS011;38032;53.326;6.472;2023-01-20T12:05:49;35.88;;;17.33;;
52015;SDS011;38032;53.326;6.472;2023-01-20T12:08:26;35.17;;;17.58;;
52015;SDS011;38032;53.326;6.472;2023-01-20T12:11:13;34.67;;;16.80;;
52015;SDS011;38032;53.326;6.472;2023-01-20T12:13:47;38.20;;;17.75;;
52015;SDS011;38032;53.326;6.472;2023-01-20T12:16:51;32.28;;;15.38;;
52015;SDS011;38032;53.326;6.472;2023-01-20T12:19:24;31.42;;;15.20;;
52015;SDS011;38032;53.326;6.472;2023-01-20T12:22:08;31.30;;;15.98;;
52015;SDS011;38032;53.326;6.472;2023-01-20T12:27:31;28.50;;;14.50;;
52015;SDS011;38032;53.326;6.472;2023-01-20T12:30:02;28.42;;;14.23;;
52015;SDS011;38032;53.326;6.472;2023-01-20T12:32:35;29.40;;;15.43;;
52015;SDS011;38032;53.326;6.472;2023-01-20T12:35:04;29.27;;;15.25;;
52015;SDS011;38032;53.326;6.472;2023-01-20T12:37:36;30.77;;;16.00;;
52015;SDS011;38032;53.326;6.472;2023-01-20T12:43:10;32.08;;;14.73;;
52015;SDS011;38032;53.326;6.472;2023-01-20T12:45:44;34.55;;;16.20;;
52015;SDS011;38032;53.326;6.472;2023-01-20T12:51:20;30.53;;;16.07;;
52015;SDS011;38032;53.326;6.472;2023-01-20T12:56:38;33.15;;;16.35;;
52015;SDS011;38032;53.326;6.472;2023-01-20T13:07:00;29.55;;;16.13;;
52015;SDS011;38032;53.326;6.472;2023-01-20T13:09:51;33.78;;;16.75;;
52015;SDS011;38032;53.326;6.472;2023-01-20T13:15:02;34.10;;;16.42;;
52015;SDS011;38032;53.326;6.472;2023-01-20T13:20:28;31.70;;;15.45;;
52015;SDS011;38032;53.326;6.472;2023-01-20T13:22:55;30.27;;;15.40;;
52015;SDS011;38032;53.326;6.472;2023-01-20T13:25:27;28.83;;;14.95;;
52015;SDS011;38032;53.326;6.472;2023-01-20T13:27:54;31.77;;;16.38;;
52015;SDS011;38032;53.326;6.472;2023-01-20T13:33:03;29.73;;;15.57;;
52015;SDS011;38032;53.326;6.472;2023-01-20T13:35:43;34.95;;;15.88;;
52015;SDS011;38032;53.326;6.472;2023-01-20T13:38:17;30.60;;;16.77;;
52015;SDS011;38032;53.326;6.472;2023-01-20T13:40:58;30.98;;;16.00;;
52015;SDS011;38032;53.326;6.472;2023-01-20T13:48:35;30.00;;;15.50;;
52015;SDS011;38032;53.326;6.472;2023-01-20T13:53:42;32.42;;;15.60;;
52015;SDS011;38032;53.326;6.472;2023-01-20T13:58:57;31.88;;;16.05;;
52015;SDS011;38032;53.326;6.472;2023-01-20T14:01:23;30.38;;;15.98;;
52015;SDS011;38032;53.326;6.472;2023-01-20T14:04:04;32.33;;;16.55;;
52015;SDS011;38032;53.326;6.472;2023-01-20T14:06:46;32.97;;;16.70;;
52015;SDS011;38032;53.326;6.472;2023-01-20T14:09:21;30.45;;;15.93;;
52015;SDS011;38032;53.326;6.472;2023-01-20T14:11:49;32.67;;;17.05;;
52015;SDS011;38032;53.326;6.472;2023-01-20T14:14:20;33.22;;;16.70;;
52015;SDS011;38032;53.326;6.472;2023-01-20T14:16:47;28.42;;;16.02;;
52015;SDS011;38032;53.326;6.472;2023-01-20T14:21:41;31.42;;;16.27;;
52015;SDS011;38032;53.326;6.472;2023-01-20T14:29:32;32.22;;;17.23;;
52015;SDS011;38032;53.326;6.472;2023-01-20T14:31:58;34.65;;;17.45;;
52015;SDS011;38032;53.326;6.472;2023-01-20T14:34:25;39.03;;;17.80;;
52015;SDS011;38032;53.326;6.472;2023-01-20T14:36:55;36.88;;;17.13;;
52015;SDS011;38032;53.326;6.472;2023-01-20T14:39:23;32.38;;;15.98;;
52015;SDS011;38032;53.326;6.472;2023-01-20T14:41:53;31.00;;;15.73;;
52015;SDS011;38032;53.326;6.472;2023-01-20T14:44:23;30.63;;;16.40;;
52015;SDS011;38032;53.326;6.472;2023-01-20T14:46:51;31.75;;;16.20;;
52015;SDS011;38032;53.326;6.472;2023-01-20T14:49:21;32.80;;;16.77;;
52015;SDS011;38032;53.326;6.472;2023-01-20T14:51:50;34.78;;;16.80;;
52015;SDS011;38032;53.326;6.472;2023-01-20T14:54:27;34.72;;;16.63;;
52015;SDS011;38032;53.326;6.472;2023-01-20T14:56:58;32.38;;;15.35;;
52015;SDS011;38032;53.326;6.472;2023-01-20T14:59:35;35.10;;;15.73;;
52015;SDS011;38032;53.326;6.472;2023-01-20T15:02:01;28.67;;;14.95;;
52015;SDS011;38032;53.326;6.472;2023-01-20T15:04:38;31.27;;;15.60;;
52015;SDS011;38032;53.326;6.472;2023-01-20T15:07:04;28.25;;;15.05;;
52015;SDS011;38032;53.326;6.472;2023-01-20T15:09:31;36.38;;;16.70;;
52015;SDS011;38032;53.326;6.472;2023-01-20T15:18:03;32.42;;;16.38;;
52015;SDS011;38032;53.326;6.472;2023-01-20T15:20:41;29.85;;;15.07;;
52015;SDS011;38032;53.326;6.472;2023-01-20T15:23:16;26.65;;;14.82;;
52015;SDS011;38032;53.326;6.472;2023-01-20T15:25:47;32.72;;;16.92;;
52015;SDS011;38032;53.326;6.472;2023-01-20T15:30:50;29.25;;;16.15;;
52015;SDS011;38032;53.326;6.472;2023-01-20T15:33:17;30.23;;;16.95;;
52015;SDS011;38032;53.326;6.472;2023-01-20T15:35:49;31.67;;;15.90;;
52015;SDS011;38032;53.326;6.472;2023-01-20T15:38:18;30.98;;;15.85;;
52015;SDS011;38032;53.326;6.472;2023-01-20T15:40:44;33.92;;;16.38;;
52015;SDS011;38032;53.326;6.472;2023-01-20T15:43:12;29.33;;;15.40;;
52015;SDS011;38032;53.326;6.472;2023-01-20T15:45:40;33.70;;;16.23;;
52015;SDS011;38032;53.326;6.472;2023-01-20T15:48:10;29.27;;;15.57;;
52015;SDS011;38032;53.326;6.472;2023-01-20T15:50:39;31.38;;;16.33;;
52015;SDS011;38032;53.326;6.472;2023-01-20T15:53:06;31.13;;;15.77;;
52015;SDS011;38032;53.326;6.472;2023-01-20T15:55:32;30.25;;;15.73;;
52015;SDS011;38032;53.326;6.472;2023-01-20T15:57:58;28.40;;;15.38;;
52015;SDS011;38032;53.326;6.472;2023-01-20T16:00:24;30.17;;;15.48;;
52015;SDS011;38032;53.326;6.472;2023-01-20T16:02:53;30.20;;;15.57;;
52015;SDS011;38032;53.326;6.472;2023-01-20T16:05:19;30.92;;;16.02;;
52015;SDS011;38032;53.326;6.472;2023-01-20T16:07:45;32.35;;;15.88;;
52015;SDS011;38032;53.326;6.472;2023-01-20T16:10:14;29.38;;;15.40;;